createdAt,value
2023-07-14T00:01:06.135Z,52485.72
2023-07-14T00:06:16.034Z,52505.72
2023-07-14T00:11:22.088Z,52501.72
2023-07-14T00:16:30.622Z,52515.72
2023-07-14T00:21:35.784Z,52503.72
2023-07-14T00:26:39.595Z,52557.72
2023-07-14T00:31:43.500Z,52523.72
2023-07-14T00:36:48.689Z,52515.72
2023-07-14T00:41:52.542Z,52549.72
2023-07-14T00:46:56.693Z,52609.75
2023-07-14T00:52:06.536Z,52643.75
2023-07-14T00:57:17.768Z,52669.75
2023-07-14T01:02:23.871Z,52669.75
2023-07-14T01:07:33.911Z,52737.75
2023-07-14T01:12:42.551Z,52801.78
2023-07-14T01:17:47.625Z,52831.78
2023-07-14T01:23:07.069Z,52857.78
2023-07-14T01:28:14.196Z,52933.81
2023-07-14T01:33:20.746Z,52939.81
2023-07-14T01:38:25.104Z,52917.78
2023-07-14T01:43:30.404Z,52975.81
2023-07-14T01:48:37.521Z,52937.81
2023-07-14T01:53:47.505Z,52933.81
2023-07-14T01:58:58.229Z,52991.81
2023-07-14T02:04:06.214Z,53045.81
2023-07-14T02:09:10.393Z,53029.81
2023-07-14T02:14:19.138Z,53041.81
2023-07-14T02:19:28.061Z,53049.81
2023-07-14T02:24:32.971Z,53093.84
2023-07-14T02:29:38.216Z,53029.81
2023-07-14T02:34:46.823Z,53067.84
2023-07-14T02:39:51.355Z,53105.84
2023-07-14T02:44:56.514Z,53081.84
2023-07-14T02:50:00.268Z,53085.84
2023-07-14T02:55:04.991Z,53129.84
2023-07-14T03:00:13.073Z,53113.84
2023-07-14T03:10:59.193Z,53167.84
2023-07-14T03:16:02.952Z,53169.84
2023-07-14T03:21:07.649Z,53185.88
2023-07-14T03:26:13.150Z,53157.84
2023-07-14T03:31:16.886Z,53161.84
2023-07-14T03:36:22.104Z,53217.88
2023-07-14T03:41:27.329Z,53227.88
2023-07-14T03:46:31.038Z,53169.84
2023-07-14T03:51:35.183Z,53235.88
2023-07-14T03:56:40.208Z,53171.84
2023-07-14T04:01:44.113Z,53261.88
2023-07-14T04:06:48.771Z,53225.88
2023-07-14T04:11:53.848Z,53213.88
2023-07-14T04:16:57.607Z,53253.88
2023-07-14T04:22:01.315Z,53213.88
2023-07-14T04:27:06.699Z,53119.84
2023-07-14T04:32:10.962Z,53167.84
2023-07-14T04:37:14.840Z,53239.88
2023-07-14T04:42:19.885Z,53269.88
2023-07-14T04:47:23.709Z,53237.88
2023-07-14T04:52:27.532Z,53341.91
2023-07-14T04:57:32.530Z,53151.84
2023-07-14T05:02:37.754Z,53199.88
2023-07-14T05:07:41.706Z,53193.88
2023-07-14T05:12:47.208Z,53133.84
2023-07-14T05:17:51.295Z,53151.84
2023-07-14T05:22:56.151Z,53113.84
2023-07-14T05:28:01.359Z,53091.84
2023-07-14T05:33:05.958Z,53111.84
2023-07-14T05:38:09.810Z,53109.84
2023-07-14T05:43:14.910Z,53229.88
2023-07-14T05:48:20.528Z,53343.91
2023-07-14T05:53:24.196Z,53445.94
2023-07-14T05:58:30.387Z,53648.03
2023-07-14T06:03:34.082Z,54554.50
2023-07-14T06:08:37.880Z,54352.38
2023-07-14T06:13:43.009Z,54890.72
2023-07-14T06:18:46.687Z,54280.31
2023-07-14T06:23:50.440Z,54090.22
2023-07-14T06:28:55.458Z,53994.16
2023-07-14T06:33:59.224Z,53942.16
2023-07-14T06:39:04.898Z,54336.34
2023-07-14T06:44:24.662Z,55202.94
2023-07-14T06:49:30.008Z,55973.63
2023-07-14T06:54:33.865Z,56155.81
2023-07-14T06:59:38.946Z,56554.25
2023-07-14T07:04:42.877Z,56898.66
2023-07-14T07:09:46.577Z,56554.25
2023-07-14T07:14:52.175Z,55487.19
2023-07-14T07:19:56.090Z,54850.69
2023-07-14T07:24:59.954Z,53778.06
2023-07-14T07:30:06.343Z,54020.19
2023-07-14T07:35:11.342Z,54046.19
2023-07-14T07:40:15.267Z,54180.28
2023-07-14T07:45:20.341Z,54310.34
2023-07-14T07:50:25.102Z,54380.38
2023-07-14T07:55:28.769Z,54864.69
2023-07-14T08:00:35.121Z,54984.78
2023-07-14T08:05:38.837Z,56932.69
2023-07-14T08:10:44.149Z,57369.25
2023-07-14T08:15:52.447Z,58350.69
2023-07-14T08:20:56.418Z,58721.28
2023-07-14T08:26:01.773Z,57287.16
2023-07-14T08:31:09.238Z,57821.88
2023-07-14T08:36:15.304Z,57815.88
2023-07-14T08:41:28.887Z,57511.44
2023-07-14T08:46:45.160Z,56091.75
2023-07-14T08:51:55.221Z,55030.81
2023-07-14T08:56:58.885Z,55729.41
2023-07-14T09:02:12.298Z,55549.25
2023-07-14T09:07:19.012Z,56127.78
2023-07-14T09:12:26.993Z,57597.56
2023-07-14T09:17:50.912Z,57729.75
2023-07-14T09:23:04.373Z,56944.72
2023-07-14T09:28:13.784Z,55737.41
2023-07-14T09:33:21.329Z,54532.47
2023-07-14T09:38:29.350Z,54812.66
2023-07-14T09:43:32.998Z,54648.53
2023-07-14T09:48:44.136Z,55110.88
2023-07-14T09:53:59.256Z,54646.53
2023-07-14T09:59:04.877Z,54554.50
2023-07-14T10:04:15.984Z,53686.03
2023-07-14T10:09:21.476Z,53926.13
2023-07-14T10:14:28.017Z,53978.16
2023-07-14T10:19:40.290Z,53992.16
2023-07-14T10:24:47.864Z,53802.09
2023-07-14T10:30:04.026Z,53566.00
2023-07-14T10:35:15.636Z,53670.03
2023-07-14T10:40:23.777Z,53419.94
2023-07-14T10:45:29.655Z,53503.97
2023-07-14T10:50:38.289Z,53447.94
2023-07-14T10:55:45.417Z,53537.97
2023-07-14T11:00:54.371Z,53706.03
2023-07-14T11:06:04.231Z,53570.00
2023-07-14T11:11:17.846Z,53495.97
2023-07-14T11:16:29.153Z,53365.91
2023-07-14T11:21:44.229Z,53335.91
2023-07-14T11:27:15.985Z,53347.91
2023-07-14T11:32:23.744Z,53259.88
2023-07-14T11:37:41.464Z,53385.91
2023-07-14T11:42:56.068Z,53734.06
2023-07-14T11:48:01.375Z,53764.06
2023-07-14T11:53:21.107Z,53277.88
2023-07-14T11:58:28.963Z,53588.00
2023-07-14T12:03:36.953Z,53181.88
2023-07-14T12:08:44.221Z,53299.91
2023-07-14T12:13:53.517Z,53545.97
2023-07-14T12:19:03.732Z,53630.00
2023-07-14T12:24:15.003Z,53640.03
2023-07-14T12:29:21.086Z,53559.97
2023-07-14T12:34:27.495Z,53489.97
2023-07-14T12:39:32.718Z,54026.19
2023-07-14T12:44:38.541Z,54070.22
2023-07-14T12:49:47.892Z,55068.84
2023-07-14T12:54:53.390Z,55403.13
2023-07-14T12:59:57.995Z,55767.44
2023-07-14T13:05:01.937Z,55000.78
2023-07-14T13:10:12.689Z,55407.13
2023-07-14T13:15:19.250Z,55415.13
2023-07-14T13:20:27.444Z,54302.34
2023-07-14T13:25:32.837Z,53814.09
2023-07-14T13:30:36.552Z,52881.78
2023-07-14T13:35:53.280Z,53229.88
2023-07-14T13:41:10.390Z,54058.22
2023-07-14T13:46:21.694Z,53299.91
2023-07-14T13:51:30.905Z,53425.94
2023-07-14T13:56:36.418Z,53722.06
2023-07-14T14:01:40.322Z,54610.53
2023-07-14T14:06:44.201Z,57072.88
2023-07-14T14:11:51.582Z,56768.50
2023-07-14T14:16:55.438Z,55509.19
2023-07-14T14:22:02.158Z,54950.75
2023-07-14T14:27:10.039Z,53796.09
2023-07-14T14:32:27.262Z,54006.19
2023-07-14T14:37:30.990Z,54354.38
2023-07-14T14:42:36.159Z,54626.53
2023-07-14T14:47:39.979Z,55094.88
2023-07-14T14:52:45.489Z,54702.59
2023-07-14T14:57:53.870Z,55273.00
2023-07-14T15:02:57.755Z,54702.59
2023-07-14T15:08:01.603Z,53966.16
2023-07-14T15:13:06.837Z,54236.31
2023-07-14T15:18:13.381Z,54986.78
2023-07-14T15:23:17.814Z,55681.34
2023-07-14T15:28:27.602Z,54648.53
2023-07-14T15:33:31.358Z,54198.28
2023-07-14T15:38:35.126Z,53958.16
2023-07-14T15:43:40.169Z,53718.06
2023-07-14T15:48:44.353Z,53950.16
2023-07-14T15:53:50.303Z,53475.97
2023-07-14T15:58:55.976Z,53223.88
2023-07-14T16:04:00.968Z,53281.88
2023-07-14T16:09:05.284Z,53519.97
2023-07-14T16:14:15.827Z,52749.75
2023-07-14T16:19:19.667Z,53119.84
2023-07-14T16:24:25.546Z,53473.94
2023-07-14T16:29:30.747Z,53680.03
2023-07-14T16:34:34.487Z,53762.06
2023-07-14T16:39:38.615Z,53898.13
2023-07-14T16:44:46.914Z,53866.13
2023-07-14T16:49:51.719Z,53337.91
2023-07-14T16:54:55.668Z,52945.81
2023-07-14T17:00:00.858Z,52665.75
2023-07-14T17:05:06.324Z,52369.72
2023-07-14T17:10:10.760Z,52281.72
2023-07-14T17:15:16.013Z,52175.69
2023-07-14T17:20:21.554Z,52105.69
2023-07-14T17:25:28.121Z,52129.69
2023-07-14T17:30:33.574Z,52121.69
2023-07-14T17:35:37.628Z,52177.69
2023-07-14T17:40:42.489Z,52153.69
2023-07-14T17:45:48.154Z,52105.69
2023-07-14T17:50:54.970Z,52117.69
2023-07-14T17:56:00.074Z,52077.69
2023-07-14T18:01:05.871Z,52095.69
2023-07-14T18:06:10.239Z,51973.69
2023-07-14T18:11:24.383Z,51967.69
2023-07-14T18:16:30.132Z,51943.72
2023-07-14T18:21:34.198Z,51843.72
2023-07-14T18:26:38.147Z,51755.72
2023-07-14T18:31:43.997Z,51719.72
2023-07-14T18:36:47.995Z,51723.72
2023-07-14T18:41:55.472Z,51647.72
2023-07-14T18:47:00.683Z,51605.72
2023-07-14T18:52:04.899Z,51559.72
2023-07-14T18:57:16.360Z,51519.75
2023-07-14T19:02:31.394Z,51457.75
2023-07-14T19:07:37.041Z,51389.75
2023-07-14T19:12:41.344Z,51389.75
2023-07-14T19:17:47.597Z,51309.78
2023-07-14T19:22:52.681Z,51331.78
2023-07-14T19:27:56.792Z,51313.78
2023-07-14T19:33:02.886Z,51309.78
2023-07-14T19:38:06.888Z,51269.78
2023-07-14T19:43:16.702Z,51247.78
2023-07-14T19:48:23.693Z,51199.78
2023-07-14T19:53:30.379Z,51149.81
2023-07-14T19:58:34.411Z,51195.78
2023-07-14T20:03:41.122Z,51121.81
2023-07-14T20:08:44.940Z,51187.81
2023-07-14T20:13:49.559Z,51137.81
2023-07-14T20:18:55.437Z,51131.81
2023-07-14T20:24:01.368Z,51113.81
2023-07-14T20:29:05.592Z,51135.81
2023-07-14T20:34:15.460Z,51093.81
2023-07-14T20:39:21.334Z,51041.84
2023-07-14T20:44:25.097Z,51045.84
2023-07-14T20:49:31.129Z,51045.84
2023-07-14T20:54:35.105Z,51043.84
2023-07-14T20:59:38.940Z,51039.84
2023-07-14T21:04:44.277Z,51023.84
2023-07-14T21:09:48.261Z,50999.84
2023-07-14T21:14:52.093Z,50979.84
2023-07-14T21:19:57.637Z,50951.84
2023-07-14T21:25:01.326Z,50969.84
2023-07-14T21:30:05.864Z,50929.88
2023-07-14T21:35:21.057Z,50893.88
2023-07-14T21:40:25.143Z,50905.88
2023-07-14T21:45:28.906Z,50889.88
2023-07-14T21:50:34.029Z,50905.88
2023-07-14T21:55:38.065Z,50885.88
2023-07-14T22:00:44.645Z,50861.88
2023-07-14T22:05:55.355Z,50863.88
2023-07-14T22:11:00.554Z,50829.91
2023-07-14T22:16:06.233Z,50849.88
2023-07-14T22:21:15.901Z,50873.88
2023-07-14T22:26:20.391Z,50845.88
2023-07-14T22:31:27.055Z,50847.88
2023-07-14T22:36:32.450Z,50867.88
2023-07-14T22:41:39.721Z,50817.91
2023-07-14T22:46:43.501Z,50817.91
2023-07-14T22:51:55.414Z,50829.91
2023-07-14T22:56:59.440Z,50813.91
2023-07-14T23:02:05.628Z,50805.91
2023-07-14T23:07:13.946Z,50811.91
2023-07-14T23:12:18.058Z,50793.91
2023-07-14T23:17:21.810Z,50805.91
2023-07-14T23:22:27.324Z,50789.91
2023-07-14T23:27:31.135Z,50735.94
2023-07-14T23:32:35.007Z,50745.91
2023-07-14T23:37:40.124Z,50789.91
2023-07-14T23:42:43.872Z,50741.94
2023-07-14T23:47:47.563Z,50711.94
2023-07-14T23:52:52.633Z,50777.91
2023-07-14T23:57:59.002Z,50765.91
